Martin City, Missouri
Current Conditions -  °F | °C
As of 8:53 PM on Wednesday 26 Nov 2014 (Local Time) from KOJC Reporting Station
Overcast Overcast  
Wind Chill: -7°   Ceiling: 1800
Heat Index: -1°   Visibility: 9mi
Dew Point: -5°   Wind: 16mph
Humidity: 75%   Direction: 330°NNW
Pressure: 30.31"   Gusts: 25mph
Location:  38.8519°N, 94.5455°W
Report Text: KOJC 270253Z 33014G22KT 9SM OVC018 M01/M05 A3031 RMK AO2 SLP271 T10111050 51037
Loading
Personal Weather Stations






























Interactive Weather Map New forecast layout! Learn more

10-Day Weather Forecast

Advertisements
Track Severe Weather on mobile